Time;durP1;ratioP1;P1;durP2;ratioP2;P2;SDS_P1;SDS_P2;PMS_P1;PMS_P2;Temp;Humidity;BMP_temperature;BMP_pressure;BME280_temperature;BME280_humidity;BME280_pressure;Samples;Min_cycle;Max_cycle;Signal;HPM_P1;HPM_P2
2020/12/28 00:01:45;;;;;;;6.13;5.53;;;;;;;1.72;63.88;92614.59;5070172;28;20230;-77
2020/12/28 00:04:13;;;;;;;5.80;5.20;;;;;;;1.77;63.79;92625.88;5070274;28;20338;-76
2020/12/28 00:06:45;;;;;;;6.20;5.60;;;;;;;1.72;63.73;92611.25;5069975;28;20197;-74
2020/12/28 00:09:11;;;;;;;6.23;5.53;;;;;;;1.66;64.29;92624.72;5069783;28;20303;-75
2020/12/28 00:11:37;;;;;;;9.47;5.57;;;;;;;1.70;63.80;92605.59;5070091;28;20235;-77
2020/12/28 00:14:03;;;;;;;6.33;5.23;;;;;;;1.73;64.21;92612.84;5070046;28;20205;-75
2020/12/28 00:16:29;;;;;;;7.03;5.50;;;;;;;1.73;64.10;92605.22;5070354;28;20216;-77
2020/12/28 00:18:55;;;;;;;6.43;5.43;;;;;;;1.83;63.75;92604.81;5070160;28;20217;-77
2020/12/28 00:21:21;;;;;;;6.57;5.53;;;;;;;1.88;63.33;92597.41;5069540;28;20232;-77
2020/12/28 00:23:47;;;;;;;6.83;5.73;;;;;;;1.78;63.93;92586.84;5069674;28;20729;-77
2020/12/28 00:26:13;;;;;;;8.20;6.10;;;;;;;1.82;63.71;92581.22;5069777;28;20193;-77
2020/12/28 00:28:40;;;;;;;6.50;5.67;;;;;;;1.79;64.14;92563.06;5069704;28;20707;-74
2020/12/28 00:31:08;;;;;;;8.37;6.20;;;;;;;1.65;64.55;92554.69;5070096;28;20222;-73
2020/12/28 00:33:34;;;;;;;6.73;5.73;;;;;;;1.76;64.33;92560.91;5069242;28;20613;-75
2020/12/28 00:35:59;;;;;;;6.53;5.83;;;;;;;1.82;64.06;92555.84;5069258;28;20207;-77
2020/12/28 00:38:25;;;;;;;8.13;6.10;;;;;;;1.91;63.62;92552.13;5069182;28;20567;-77
2020/12/28 00:40:51;;;;;;;7.60;6.33;;;;;;;1.91;63.80;92548.81;5068751;28;20197;-77
2020/12/28 00:43:17;;;;;;;6.67;5.97;;;;;;;1.84;63.90;92561.50;5069863;28;20283;-78
2020/12/28 00:45:44;;;;;;;9.13;6.23;;;;;;;1.82;64.45;92545.69;5069055;28;20230;-75
2020/12/28 00:48:13;;;;;;;8.10;6.10;;;;;;;1.71;64.80;92554.72;5069426;28;20197;-75
2020/12/28 00:50:39;;;;;;;7.70;6.33;;;;;;;1.77;64.87;92565.78;5069186;28;20197;-75
2020/12/28 00:53:04;;;;;;;7.67;6.10;;;;;;;1.80;64.31;92560.34;5069263;28;20197;-75
2020/12/28 00:55:30;;;;;;;7.30;6.50;;;;;;;1.85;64.58;92539.47;5068253;28;20250;-78
2020/12/28 00:57:56;;;;;;;7.47;5.90;;;;;;;1.82;64.73;92544.91;5069484;28;20269;-75
2020/12/28 01:00:22;;;;;;;7.97;6.00;;;;;;;1.82;64.37;92552.53;5069119;28;20243;-75
2020/12/28 01:02:49;;;;;;;7.63;5.70;;;;;;;1.88;64.51;92549.22;5069086;28;20201;-74
2020/12/28 01:05:15;;;;;;;7.73;6.50;;;;;;;1.93;64.35;92544.31;5068656;28;20197;-77
2020/12/28 01:07:41;;;;;;;10.60;6.30;;;;;;;1.97;64.15;92550.53;5069389;28;20203;-75
2020/12/28 01:10:07;;;;;;;9.00;6.53;;;;;;;2.02;64.16;92553.25;5068743;28;20719;-75
2020/12/28 01:12:32;;;;;;;7.37;6.40;;;;;;;2.07;63.87;92553.47;5068969;28;20258;-74
2020/12/28 01:14:58;;;;;;;8.03;6.50;;;;;;;2.10;64.02;92552.28;5069477;28;20247;-75
2020/12/28 01:17:24;;;;;;;6.57;5.80;;;;;;;2.09;63.78;92556.56;5069058;28;20193;-73
2020/12/28 01:19:51;;;;;;;7.37;6.37;;;;;;;2.03;64.04;92542.91;5068661;28;20213;-75
2020/12/28 01:22:17;;;;;;;8.43;6.47;;;;;;;2.00;64.51;92555.22;5068510;28;20185;-75
2020/12/28 01:24:43;;;;;;;7.03;6.03;;;;;;;1.97;64.60;92560.69;5068728;28;20206;-75
2020/12/28 01:27:09;;;;;;;7.90;6.10;;;;;;;1.99;64.80;92556.97;5068764;28;20201;-74
2020/12/28 01:29:34;;;;;;;6.87;5.70;;;;;;;2.04;64.43;92541.94;5068329;28;20216;-74
2020/12/28 01:32:00;;;;;;;7.97;6.17;;;;;;;2.06;63.93;92550.13;5068789;28;20231;-74
2020/12/28 01:34:26;;;;;;;6.90;6.07;;;;;;;2.13;63.88;92547.56;5068594;28;20250;-75
2020/12/28 01:36:55;;;;;;;9.43;6.40;;;;;;;1.99;64.43;92529.06;5068289;28;20204;-75
2020/12/28 01:39:21;;;;;;;9.07;6.40;;;;;;;1.87;64.81;92543.34;5068751;28;20217;-77
2020/12/28 01:41:47;;;;;;;8.07;6.27;;;;;;;1.95;64.86;92553.28;5068409;28;20804;-74
2020/12/28 01:44:13;;;;;;;6.57;5.50;;;;;;;2.06;64.23;92554.44;5048259;28;20217;-74
2020/12/28 01:46:39;;;;;;;7.80;5.97;;;;;;;2.17;63.80;92550.47;5048495;28;20197;-74
2020/12/28 01:49:05;;;;;;;7.70;6.20;;;;;;;2.25;63.62;92550.28;5066621;28;20906;-74
2020/12/28 01:51:32;;;;;;;7.00;5.73;;;;;;;2.28;63.72;92535.44;5068016;28;20231;-77
2020/12/28 01:54:02;;;;;;;8.03;5.87;;;;;;;2.27;63.50;92522.94;5067269;28;20204;-77
2020/12/28 01:56:29;;;;;;;7.17;6.00;;;;;;;2.30;63.93;92535.22;5067859;28;20696;-77
2020/12/28 01:58:56;;;;;;;8.93;5.73;;;;;;;2.35;63.26;92525.22;5067974;28;20213;-74
2020/12/28 02:01:24;;;;;;;7.13;5.73;;;;;;;2.37;63.03;92524.06;5068236;28;20197;-75
2020/12/28 02:03:50;;;;;;;7.63;6.00;;;;;;;2.42;63.45;92524.25;5067507;28;20259;-74
2020/12/28 02:06:16;;;;;;;6.33;5.73;;;;;;;2.45;63.13;92517.19;5068175;28;20209;-75
2020/12/28 02:08:43;;;;;;;7.30;6.00;;;;;;;2.52;62.81;92516.16;5067867;28;20217;-75
2020/12/28 02:11:09;;;;;;;6.23;5.50;;;;;;;2.56;62.92;92511.47;5067635;28;20220;-75
2020/12/28 02:13:35;;;;;;;8.23;6.17;;;;;;;2.59;62.92;92513.59;5067425;28;20193;-75
2020/12/28 02:16:01;;;;;;;6.23;5.03;;;;;;;2.58;62.50;92497.59;5067456;28;20858;-75
2020/12/28 02:18:27;;;;;;;7.97;5.30;;;;;;;2.59;62.58;92498.38;5067441;28;20266;-74
2020/12/28 02:20:53;;;;;;;6.47;5.40;;;;;;;2.59;62.76;92501.69;5067667;28;20223;-77
2020/12/28 02:23:19;;;;;;;7.13;5.60;;;;;;;2.57;62.34;92505.41;5067820;28;20192;-75
2020/12/28 02:25:46;;;;;;;6.63;5.43;;;;;;;2.52;62.70;92506.00;5067557;28;20593;-77
2020/12/28 02:28:12;;;;;;;7.40;5.80;;;;;;;2.52;62.80;92505.22;5066940;28;20204;-77
2020/12/28 02:30:39;;;;;;;6.00;5.07;;;;;;;2.55;62.76;92497.22;5067314;28;20200;-75
2020/12/28 02:33:05;;;;;;;6.00;5.40;;;;;;;2.57;62.61;92493.50;5066885;28;20254;-75
2020/12/28 02:35:30;;;;;;;6.07;5.13;;;;;;;2.59;62.24;92489.00;5067504;28;20201;-78
2020/12/28 02:37:56;;;;;;;5.60;4.70;;;;;;;2.59;62.16;92483.91;5067423;28;20197;-77
2020/12/28 02:40:23;;;;;;;5.67;5.07;;;;;;;2.60;62.48;92479.63;5067665;28;20395;-77
2020/12/28 02:42:49;;;;;;;5.87;4.93;;;;;;;2.57;62.49;92463.03;5067109;28;20193;-77
2020/12/28 02:45:15;;;;;;;6.57;5.37;;;;;;;2.59;62.86;92457.75;5067149;28;20363;-74
2020/12/28 02:47:41;;;;;;;6.03;5.30;;;;;;;2.62;63.05;92458.13;5067770;28;20200;-75
2020/12/28 02:50:07;;;;;;;6.87;5.30;;;;;;;2.61;63.15;92453.25;5067487;28;20735;-76
2020/12/28 02:52:33;;;;;;;6.13;5.53;;;;;;;2.60;62.95;92444.06;5067499;28;20212;-75
2020/12/28 02:54:58;;;;;;;8.63;5.57;;;;;;;2.55;63.46;92461.66;5067079;28;20478;-75
2020/12/28 02:57:25;;;;;;;8.03;5.53;;;;;;;2.57;63.43;92452.88;5067228;28;20197;-75
2020/12/28 02:59:51;;;;;;;6.00;5.40;;;;;;;2.58;63.19;92449.34;5066760;28;20220;-78
2020/12/28 03:02:17;;;;;;;6.23;5.63;;;;;;;2.60;63.28;92451.69;5067245;28;20245;-75
2020/12/28 03:04:43;;;;;;;6.77;5.23;;;;;;;2.53;63.67;92448.41;5067191;28;20208;-78
2020/12/28 03:07:09;;;;;;;5.40;4.90;;;;;;;2.54;63.73;92438.03;5066992;28;20242;-75
2020/12/28 03:09:35;;;;;;;6.33;5.27;;;;;;;2.58;63.51;92431.56;5067129;28;20361;-75
2020/12/28 03:12:01;;;;;;;6.93;5.07;;;;;;;2.56;63.91;92443.69;5066859;28;20213;-77
2020/12/28 03:14:27;;;;;;;5.90;4.63;;;;;;;2.56;64.04;92448.00;5066883;28;20829;-77
2020/12/28 03:16:53;;;;;;;5.37;4.87;;;;;;;2.55;64.14;92456.59;5066875;28;20215;-75
2020/12/28 03:19:19;;;;;;;7.60;5.10;;;;;;;2.59;63.34;92439.97;5066864;28;20274;-75
2020/12/28 03:21:45;;;;;;;5.50;4.90;;;;;;;2.59;64.02;92428.06;5066205;28;20185;-75
2020/12/28 03:24:11;;;;;;;5.57;5.00;;;;;;;2.47;64.48;92422.09;5066709;28;20196;-75
2020/12/28 03:26:37;;;;;;;5.97;5.00;;;;;;;2.36;64.63;92418.44;5066887;28;20240;-78
2020/12/28 03:29:03;;;;;;;7.20;5.50;;;;;;;2.39;64.89;92410.41;5066700;28;20261;-77
2020/12/28 03:31:29;;;;;;;5.40;4.87;;;;;;;2.45;64.15;92401.22;5066485;28;20212;-75
2020/12/28 03:33:55;;;;;;;6.60;4.87;;;;;;;2.46;64.13;92394.38;5065843;28;20189;-77
2020/12/28 03:36:23;;;;;;;6.47;5.03;;;;;;;2.52;64.40;92396.84;5067021;28;20723;-77
2020/12/28 03:38:48;;;;;;;6.23;5.20;;;;;;;2.58;64.29;92393.50;5066610;28;20220;-74
2020/12/28 03:41:14;;;;;;;5.30;4.57;;;;;;;2.65;64.13;92394.22;5066651;28;20192;-75
2020/12/28 03:43:40;;;;;;;6.17;5.07;;;;;;;2.69;64.33;92392.06;5066567;28;20208;-76
2020/12/28 03:46:06;;;;;;;5.43;4.67;;;;;;;2.68;64.32;92398.13;5066484;28;20852;-78
2020/12/28 03:48:33;;;;;;;5.73;5.00;;;;;;;2.70;64.00;92394.38;5066416;28;20221;-78
2020/12/28 03:50:59;;;;;;;6.40;5.07;;;;;;;2.61;64.63;92385.47;5066562;28;20730;-77
2020/12/28 03:53:25;;;;;;;5.90;5.30;;;;;;;2.64;64.86;92379.19;5066733;28;20193;-78
2020/12/28 03:55:51;;;;;;;5.80;5.20;;;;;;;2.66;64.93;92377.22;5066514;28;20698;-77
2020/12/28 03:58:17;;;;;;;6.33;4.97;;;;;;;2.68;64.97;92367.66;5065900;28;20197;-77
2020/12/28 04:00:43;;;;;;;5.63;4.90;;;;;;;2.69;64.71;92376.81;5066936;28;20291;-77
2020/12/28 04:03:09;;;;;;;5.83;5.07;;;;;;;2.72;64.79;92394.94;5066320;28;20246;-75
2020/12/28 04:05:35;;;;;;;5.33;4.80;;;;;;;2.78;64.78;92401.75;5066056;28;20738;-77
2020/12/28 04:08:04;;;;;;;5.53;5.00;;;;;;;2.80;64.77;92385.53;5066770;28;20671;-78
2020/12/28 04:10:30;;;;;;;5.87;5.00;;;;;;;2.73;65.59;92383.03;5066128;28;20216;-74
2020/12/28 04:12:56;;;;;;;6.43;5.00;;;;;;;2.74;65.34;92387.13;5069923;28;20221;-78
2020/12/28 04:15:22;;;;;;;8.60;5.40;;;;;;;2.70;65.70;92386.75;5069837;28;20607;-75
2020/12/28 04:17:48;;;;;;;7.27;6.00;;;;;;;2.59;65.92;92379.81;5069847;28;20205;-78
2020/12/28 04:20:14;;;;;;;8.73;6.03;;;;;;;2.41;66.58;92380.53;5069671;28;20220;-75
2020/12/28 04:22:40;;;;;;;7.80;5.87;;;;;;;2.45;66.32;92385.19;5069332;28;20656;-75
2020/12/28 04:25:06;;;;;;;9.43;6.17;;;;;;;2.52;65.94;92378.28;5069765;28;20805;-78
2020/12/28 04:27:35;;;;;;;7.13;6.13;;;;;;;2.59;65.73;92382.34;5069800;28;20196;-75
2020/12/28 04:30:01;;;;;;;6.27;5.67;;;;;;;2.60;66.35;92400.91;5069730;28;20220;-76
2020/12/28 04:32:27;;;;;;;9.10;6.27;;;;;;;2.43;66.83;92393.78;5069629;28;20240;-75
2020/12/28 04:34:53;;;;;;;7.27;5.70;;;;;;;2.33;67.22;92370.63;5069408;28;20203;-77
2020/12/28 04:37:19;;;;;;;8.83;5.70;;;;;;;2.34;66.92;92367.09;5069476;28;20193;-78
2020/12/28 04:39:45;;;;;;;6.67;5.67;;;;;;;2.44;67.17;92374.25;5069735;28;20224;-77
2020/12/28 04:42:11;;;;;;;6.77;6.00;;;;;;;2.53;66.77;92375.56;5069523;28;20196;-75
2020/12/28 04:44:37;;;;;;;7.60;5.93;;;;;;;2.61;66.38;92374.53;5068877;28;20204;-75
2020/12/28 04:47:03;;;;;;;6.57;5.83;;;;;;;2.50;67.48;92372.66;5069874;28;20204;-78
2020/12/28 04:49:31;;;;;;;6.93;5.50;;;;;;;2.48;67.02;92369.56;5069234;28;20304;-74
2020/12/28 04:51:57;;;;;;;6.60;5.50;;;;;;;2.41;66.98;92370.38;5069235;28;20746;-78
2020/12/28 04:54:23;;;;;;;9.90;5.90;;;;;;;2.33;67.52;92368.06;5068741;28;20185;-77
2020/12/28 04:56:50;;;;;;;6.57;5.60;;;;;;;2.30;67.64;92365.97;5069381;28;20769;-76
2020/12/28 04:59:16;;;;;;;5.90;5.30;;;;;;;2.38;67.61;92364.94;5069244;28;20217;-78
2020/12/28 05:01:52;;;;;;;8.83;5.87;;;;;;;2.52;66.99;92355.44;5069069;28;20204;-75
2020/12/28 05:04:17;;;;;;;5.93;5.00;;;;;;;2.63;67.04;92353.03;5068862;28;20196;-75
2020/12/28 05:06:54;;;;;;;6.23;5.63;;;;;;;2.71;67.12;92351.97;5068692;28;20239;-74
2020/12/28 05:09:20;;;;;;;5.87;5.27;;;;;;;2.46;67.45;92338.53;5068847;28;20323;-75
2020/12/28 05:11:52;;;;;;;9.07;6.33;;;;;;;2.36;67.35;92337.22;5069055;28;20700;-77
2020/12/28 05:14:19;;;;;;;8.63;6.10;;;;;;;2.24;67.03;92323.66;5067505;28;20197;-77
2020/12/28 05:16:45;;;;;;;6.27;5.03;;;;;;;2.17;67.23;92317.81;5067178;28;20563;-74
2020/12/28 05:19:11;;;;;;;7.63;5.20;;;;;;;2.23;66.58;92336.53;5067997;28;20220;-74
2020/12/28 05:21:38;;;;;;;5.80;4.90;;;;;;;2.26;66.28;92357.22;5068485;28;20196;-75
2020/12/28 05:24:11;;;;;;;7.43;4.83;;;;;;;2.41;65.65;92339.13;5067202;28;20254;-75
2020/12/28 05:26:40;;;;;;;7.27;4.73;;;;;;;2.58;65.61;92316.53;5068217;28;20189;-75
2020/12/28 05:29:11;;;;;;;6.27;4.80;;;;;;;2.57;65.56;92320.06;5066935;28;20220;-74
2020/12/28 05:31:38;;;;;;;4.30;3.90;;;;;;;2.61;64.59;92331.38;5051327;28;20217;-75
2020/12/28 05:34:04;;;;;;;4.97;3.93;;;;;;;2.47;64.14;92314.69;5067793;28;20617;-74
2020/12/28 05:36:30;;;;;;;5.53;4.00;;;;;;;2.44;64.24;92305.72;5067995;28;20890;-75
2020/12/28 05:38:57;;;;;;;5.23;4.30;;;;;;;2.58;63.65;92312.25;5057602;28;20220;-75
2020/12/28 05:41:27;;;;;;;8.10;4.10;;;;;;;3.01;79.56;92324.94;5068488;28;20193;-75
2020/12/28 05:43:53;;;;;;;4.43;3.97;;;;;;;3.22;65.47;92341.53;5066803;28;20193;-75
2020/12/28 05:46:23;;;;;;;5.07;3.77;;;;;;;3.19;62.36;92364.06;5055131;28;20208;-76
2020/12/28 05:48:54;;;;;;;7.70;4.13;;;;;;;3.12;62.79;92376.81;5065214;28;20217;-77
2020/12/28 05:51:20;;;;;;;8.57;4.90;;;;;;;3.09;63.27;92370.38;5059018;28;20227;-77
2020/12/28 05:53:48;;;;;;;5.80;4.50;;;;;;;3.13;63.55;92375.84;5052126;28;20192;-77
2020/12/28 05:56:15;;;;;;;4.57;3.87;;;;;;;3.12;62.97;92392.84;5061278;28;20209;-74
2020/12/28 05:58:43;;;;;;;5.40;4.60;;;;;;;3.09;63.66;92411.03;5053648;28;20212;-75
2020/12/28 06:01:10;;;;;;;6.20;5.03;;;;;;;3.05;64.32;92409.94;5065946;28;20266;-74
2020/12/28 06:03:40;;;;;;;6.40;5.47;;;;;;;3.04;64.59;92413.47;5066220;28;20208;-77
2020/12/28 06:06:07;;;;;;;7.70;5.53;;;;;;;3.02;64.70;92422.28;5067594;28;20189;-75
2020/12/28 06:08:32;;;;;;;6.30;5.13;;;;;;;3.02;64.55;92419.72;5067869;28;20623;-74
2020/12/28 06:11:04;;;;;;;8.33;4.87;;;;;;;3.02;64.74;92427.34;5066594;28;20201;-77
2020/12/28 06:13:30;;;;;;;6.47;5.40;;;;;;;2.97;64.83;92422.88;5067293;28;20244;-74
2020/12/28 06:16:03;;;;;;;6.30;5.50;;;;;;;2.96;64.89;92418.78;5065565;28;20644;-74
2020/12/28 06:18:32;;;;;;;7.87;5.63;;;;;;;2.90;65.43;92422.16;5052032;28;20685;-76
2020/12/28 06:21:11;;;;;;;6.40;5.47;;;;;;;2.92;65.49;92421.94;5066909;28;20193;-77
2020/12/28 06:23:38;;;;;;;8.03;5.50;;;;;;;2.85;65.62;92404.25;5061076;28;20224;-75
2020/12/28 06:26:04;;;;;;;6.43;5.20;;;;;;;2.80;65.92;92400.75;5067058;28;20224;-75
2020/12/28 06:28:30;;;;;;;6.80;5.47;;;;;;;2.83;65.70;92393.50;5067309;28;20189;-74
2020/12/28 06:31:06;;;;;;;6.63;4.77;;;;;;;2.89;66.11;92399.50;5064683;28;20270;-74
2020/12/28 06:33:32;;;;;;;16.23;10.97;;;;;;;2.91;66.34;92380.53;5060121;28;20224;-74
2020/12/28 06:35:59;;;;;;;31.27;22.30;;;;;;;2.87;66.39;92361.63;5066194;28;20201;-74
2020/12/28 06:38:25;;;;;;;8.27;6.47;;;;;;;2.72;66.16;92364.47;5066676;28;20192;-74
2020/12/28 06:40:52;;;;;;;7.40;6.03;;;;;;;2.52;66.52;92360.53;5066021;28;20189;-75
2020/12/28 06:43:19;;;;;;;5.97;5.37;;;;;;;2.50;67.25;92362.53;5066636;28;20282;-75
2020/12/28 06:45:47;;;;;;;5.80;5.07;;;;;;;2.61;66.46;92357.53;5067319;28;20365;-76
2020/12/28 06:48:16;;;;;;;6.17;5.43;;;;;;;2.63;66.20;92347.94;5066766;28;20197;-74
2020/12/28 06:50:42;;;;;;;5.83;5.17;;;;;;;2.66;66.60;92332.31;5066287;28;20197;-75
2020/12/28 06:53:09;;;;;;;6.23;5.20;;;;;;;2.74;66.11;92333.78;5066534;28;20220;-75
2020/12/28 06:55:35;;;;;;;6.03;5.43;;;;;;;2.84;66.11;92323.94;5053685;28;20208;-74
2020/12/28 06:58:01;;;;;;;25.70;17.13;;;;;;;2.90;66.20;92310.38;5061605;28;20811;-75
2020/12/28 07:00:27;;;;;;;36.57;23.43;;;;;;;2.97;65.74;92297.63;5065000;28;20932;-77
2020/12/28 07:02:54;;;;;;;27.30;19.20;;;;;;;3.01;65.56;92291.13;5056249;28;20472;-77
2020/12/28 07:05:22;;;;;;;16.87;10.47;;;;;;;3.05;65.42;92297.34;5065496;28;20193;-75
2020/12/28 07:07:49;;;;;;;9.03;6.30;;;;;;;2.98;65.58;92304.25;5065606;28;20232;-75
2020/12/28 07:10:17;;;;;;;7.83;5.97;;;;;;;3.02;65.58;92311.25;5065174;28;20285;-75
2020/12/28 07:12:43;;;;;;;6.87;5.73;;;;;;;3.00;65.49;92308.16;5060647;28;20220;-75
2020/12/28 07:15:10;;;;;;;6.53;5.07;;;;;;;2.93;65.68;92314.25;5054951;28;20247;-75
2020/12/28 07:17:36;;;;;;;6.20;5.60;;;;;;;2.92;66.13;92312.72;5066148;28;20563;-75
2020/12/28 07:20:07;;;;;;;6.10;5.50;;;;;;;2.94;65.88;92310.75;5057137;28;20221;-73
2020/12/28 07:22:34;;;;;;;7.73;5.60;;;;;;;2.98;65.86;92320.28;5050303;28;20193;-75
2020/12/28 07:25:00;;;;;;;8.23;5.47;;;;;;;2.93;65.97;92332.81;5065402;28;20310;-73
2020/12/28 07:27:27;;;;;;;6.83;5.37;;;;;;;2.89;66.53;92320.75;5065814;28;20193;-74
2020/12/28 07:29:53;;;;;;;6.23;5.60;;;;;;;2.88;66.24;92312.38;5064894;28;20278;-74
2020/12/28 07:32:20;;;;;;;10.57;6.10;;;;;;;2.94;66.14;92303.91;5064970;28;20579;-75
2020/12/28 07:34:51;;;;;;;6.80;5.20;;;;;;;3.01;65.87;92294.44;5065165;28;20226;-75
2020/12/28 07:37:18;;;;;;;7.73;5.60;;;;;;;3.09;66.13;92283.22;5065073;28;20262;-76
2020/12/28 07:39:46;;;;;;;7.07;5.10;;;;;;;3.13;66.01;92287.66;5065015;28;20239;-75
2020/12/28 07:42:17;;;;;;;7.00;5.30;;;;;;;3.16;65.87;92283.94;5065046;28;20561;-73
2020/12/28 07:44:51;;;;;;;7.70;5.40;;;;;;;3.21;65.40;92283.28;5065513;28;20815;-75
2020/12/28 07:47:21;;;;;;;14.83;10.33;;;;;;;3.22;65.84;92277.22;5068075;28;20185;-77
2020/12/28 07:49:49;;;;;;;7.50;6.40;;;;;;;2.98;66.54;92271.22;5068102;28;20224;-77
2020/12/28 07:52:21;;;;;;;7.97;5.90;;;;;;;2.91;67.18;92281.44;5069025;28;20319;-76
2020/12/28 07:54:56;;;;;;;8.87;5.60;;;;;;;2.91;66.65;92275.59;5068743;28;20201;-76
2020/12/28 07:57:29;;;;;;;6.83;5.73;;;;;;;2.96;66.59;92268.91;5066072;28;20703;-77
2020/12/28 08:00:05;;;;;;;6.20;5.60;;;;;;;3.05;66.33;92262.56;5064195;28;20227;-75
2020/12/28 08:02:49;;;;;;;6.07;5.30;;;;;;;3.15;66.33;92251.88;5066995;28;20192;-73
2020/12/28 08:05:17;;;;;;;6.30;5.33;;;;;;;3.23;65.97;92240.66;5069024;28;20829;-75
2020/12/28 08:07:43;;;;;;;7.43;5.30;;;;;;;3.30;65.62;92241.34;5068953;28;20193;-75
2020/12/28 08:10:11;;;;;;;8.93;6.20;;;;;;;3.30;65.71;92241.34;5068429;28;20220;-75
2020/12/28 08:12:40;;;;;;;8.03;5.70;;;;;;;3.16;66.93;92235.63;5068265;28;20223;-75
2020/12/28 08:15:07;;;;;;;6.27;5.63;;;;;;;3.22;66.56;92227.16;5068552;28;20228;-74
2020/12/28 08:17:33;;;;;;;7.80;5.47;;;;;;;3.28;66.12;92225.53;5068852;28;20224;-74
2020/12/28 08:20:07;;;;;;;6.13;5.53;;;;;;;3.36;66.09;92198.03;5068191;28;20212;-75
2020/12/28 08:22:33;;;;;;;7.97;5.77;;;;;;;3.42;65.95;92201.50;5068207;28;20188;-75
2020/12/28 08:25:00;;;;;;;6.40;5.73;;;;;;;3.32;65.70;92203.78;5068319;28;20250;-76
2020/12/28 08:27:30;;;;;;;8.80;5.90;;;;;;;3.09;66.14;92202.69;5068447;28;20204;-75
2020/12/28 08:29:56;;;;;;;5.90;5.30;;;;;;;3.11;65.92;92199.94;5068013;28;20245;-75
2020/12/28 08:32:27;;;;;;;7.07;5.57;;;;;;;3.21;65.66;92207.84;5068107;28;20221;-75
2020/12/28 08:34:54;;;;;;;6.17;5.43;;;;;;;3.35;65.66;92228.75;5068713;28;20560;-74
2020/12/28 08:37:20;;;;;;;5.43;4.60;;;;;;;3.39;61.78;92224.81;5068651;28;20251;-74
2020/12/28 08:39:46;;;;;;;8.83;7.07;;;;;;;3.38;61.14;92205.47;5067639;28;20311;-75
2020/12/28 08:42:12;;;;;;;11.07;8.47;;;;;;;3.44;61.92;92209.69;5067691;28;20585;-73
2020/12/28 08:44:41;;;;;;;16.30;12.43;;;;;;;3.55;61.73;92221.66;5067731;28;20200;-75
2020/12/28 08:47:10;;;;;;;8.73;6.87;;;;;;;3.58;60.11;92233.94;5060992;28;20704;-74
2020/12/28 08:49:37;;;;;;;6.20;4.77;;;;;;;3.59;59.82;92222.78;5067606;28;20209;-74
2020/12/28 08:52:10;;;;;;;7.27;4.10;;;;;;;3.38;58.81;92200.38;5067559;28;20209;-74
2020/12/28 08:54:36;;;;;;;5.73;4.10;;;;;;;3.20;58.35;92185.94;5053992;28;20193;-75
2020/12/28 08:57:03;;;;;;;3.40;3.10;;;;;;;3.18;55.68;92192.22;5068034;28;20203;-75
2020/12/28 08:59:29;;;;;;;4.93;3.00;;;;;;;3.25;53.16;92203.09;5067015;28;20217;-74
2020/12/28 09:01:56;;;;;;;3.20;2.80;;;;;;;3.40;53.96;92206.03;5067977;28;20224;-75
2020/12/28 09:04:23;;;;;;;3.07;2.77;;;;;;;3.54;53.89;92209.94;5067612;28;20282;-76
2020/12/28 09:06:50;;;;;;;4.30;3.17;;;;;;;3.66;55.52;92222.66;5067554;28;20200;-74
2020/12/28 09:09:17;;;;;;;6.70;3.70;;;;;;;3.69;56.15;92222.25;5067549;28;20649;-75
2020/12/28 09:11:43;;;;;;;4.53;3.90;;;;;;;3.68;57.02;92226.53;5067320;28;20192;-74
2020/12/28 09:14:09;;;;;;;5.63;4.03;;;;;;;3.68;57.69;92205.44;5066908;28;20255;-75
2020/12/28 09:16:35;;;;;;;4.80;3.60;;;;;;;3.68;57.55;92223.22;5067782;28;20193;-75
2020/12/28 09:19:01;;;;;;;5.90;4.10;;;;;;;3.73;57.85;92224.13;5067243;28;20719;-76
2020/12/28 09:21:27;;;;;;;5.83;3.67;;;;;;;3.99;78.68;92224.75;5067439;28;20200;-76
2020/12/28 09:23:53;;;;;;;5.47;4.10;;;;;;;4.18;63.41;92218.56;5067063;28;20193;-75
2020/12/28 09:26:22;;;;;;;4.73;3.70;;;;;;;4.23;60.02;92212.84;5067389;28;20197;-77
2020/12/28 09:28:48;;;;;;;5.53;4.17;;;;;;;4.24;58.89;92204.19;5067226;28;20645;-75
2020/12/28 09:31:16;;;;;;;31.10;21.40;;;;;;;4.20;58.45;92203.09;5067569;28;20197;-74
2020/12/28 09:33:42;;;;;;;19.90;12.87;;;;;;;4.16;58.07;92205.28;5067138;28;20303;-74
2020/12/28 09:36:07;;;;;;;18.17;14.17;;;;;;;4.15;58.41;92208.84;5066630;28;20230;-77
2020/12/28 09:38:33;;;;;;;18.13;11.67;;;;;;;4.16;58.24;92226.44;5067151;28;20224;-75
2020/12/28 09:41:00;;;;;;;13.80;9.27;;;;;;;4.15;58.29;92229.19;5065732;28;20201;-74
2020/12/28 09:43:26;;;;;;;6.20;5.33;;;;;;;4.09;57.91;92228.28;5067065;28;20635;-75
2020/12/28 09:45:52;;;;;;;5.83;4.40;;;;;;;4.06;58.10;92220.31;5067551;28;20193;-75
2020/12/28 09:48:18;;;;;;;6.80;4.70;;;;;;;4.03;58.07;92220.78;5066217;28;20205;-74
2020/12/28 09:50:44;;;;;;;7.00;4.30;;;;;;;4.05;58.39;92214.44;5066475;28;20250;-74
2020/12/28 09:53:10;;;;;;;7.67;4.40;;;;;;;4.02;58.99;92211.59;5066558;28;20606;-74
2020/12/28 09:55:36;;;;;;;6.77;4.73;;;;;;;4.05;58.96;92209.38;5066847;28;20297;-74
2020/12/28 09:58:03;;;;;;;68.43;45.87;;;;;;;4.05;59.25;92209.38;5067163;28;20789;-77
2020/12/28 10:00:29;;;;;;;26.83;19.10;;;;;;;4.09;58.80;92204.63;5066395;28;20217;-75
2020/12/28 10:02:54;;;;;;;18.07;14.00;;;;;;;4.07;59.14;92209.91;5067041;28;20189;-75
2020/12/28 10:05:21;;;;;;;17.20;12.23;;;;;;;4.07;59.16;92204.84;5066678;28;20193;-75
2020/12/28 10:07:47;;;;;;;7.90;5.13;;;;;;;4.07;58.44;92188.78;5066812;28;20246;-75
2020/12/28 10:10:13;;;;;;;7.00;5.73;;;;;;;4.09;58.97;92177.38;5064912;28;20213;-76
2020/12/28 10:12:39;;;;;;;7.80;5.47;;;;;;;4.11;58.76;92174.63;5066893;28;20208;-74
2020/12/28 10:15:06;;;;;;;8.73;5.53;;;;;;;4.11;58.66;92170.31;5066780;28;20197;-75
2020/12/28 10:17:32;;;;;;;5.80;5.07;;;;;;;4.11;59.08;92172.09;5067036;28;20196;-75
2020/12/28 10:19:58;;;;;;;7.87;4.90;;;;;;;4.05;58.76;92166.09;5066146;28;20217;-76
2020/12/28 10:22:26;;;;;;;5.73;4.93;;;;;;;4.08;58.61;92172.53;5066712;28;20606;-74
2020/12/28 10:24:52;;;;;;;8.27;5.00;;;;;;;4.07;58.61;92169.19;5066193;28;20196;-73
2020/12/28 10:27:18;;;;;;;8.43;5.13;;;;;;;4.07;58.44;92170.97;5066759;28;20200;-75
2020/12/28 10:29:44;;;;;;;9.30;5.27;;;;;;;4.07;58.70;92171.75;5066094;28;20239;-74
2020/12/28 10:32:10;;;;;;;6.30;4.90;;;;;;;4.09;59.11;92157.03;5066277;28;20221;-75
2020/12/28 10:34:36;;;;;;;6.27;4.90;;;;;;;4.10;59.26;92160.34;5066346;28;20192;-77
2020/12/28 10:37:02;;;;;;;5.93;5.10;;;;;;;4.10;59.55;92147.63;5066744;28;20189;-74
2020/12/28 10:39:28;;;;;;;7.30;5.40;;;;;;;4.12;59.71;92135.47;5066067;28;20278;-77
2020/12/28 10:41:54;;;;;;;6.00;5.40;;;;;;;4.13;59.46;92144.66;5066654;28;20680;-75
2020/12/28 10:44:21;;;;;;;12.40;7.27;;;;;;;4.14;59.66;92146.19;5050635;28;20201;-79
2020/12/28 10:46:47;;;;;;;24.77;17.83;;;;;;;4.09;59.80;92139.22;5065814;28;20199;-77
2020/12/28 10:49:14;;;;;;;11.23;8.23;;;;;;;3.95;61.44;92135.34;5065398;28;20213;-75
2020/12/28 10:51:46;;;;;;;14.40;9.23;;;;;;;4.00;60.88;92130.38;5065854;28;20200;-75
2020/12/28 10:54:12;;;;;;;10.80;7.90;;;;;;;4.05;61.16;92127.94;5064849;28;20205;-75
2020/12/28 10:56:38;;;;;;;9.03;6.73;;;;;;;4.09;60.74;92129.03;5066167;28;20205;-73
2020/12/28 10:59:04;;;;;;;7.50;6.23;;;;;;;4.07;60.96;92115.75;5065700;28;20221;-75
2020/12/28 11:01:30;;;;;;;10.60;5.93;;;;;;;4.08;60.99;92106.34;5065230;28;20228;-75
2020/12/28 11:03:56;;;;;;;8.80;6.20;;;;;;;4.11;61.21;92095.72;5065959;28;20249;-75
2020/12/28 11:06:23;;;;;;;8.20;6.37;;;;;;;4.13;61.32;92091.19;5055780;28;20664;-74
2020/12/28 11:08:50;;;;;;;14.10;6.77;;;;;;;4.08;60.99;92088.53;5065956;28;20293;-75
2020/12/28 11:11:16;;;;;;;8.33;6.23;;;;;;;4.05;61.39;92074.47;5065938;28;20197;-75
2020/12/28 11:13:42;;;;;;;8.10;6.30;;;;;;;4.06;61.04;92072.72;5065699;28;20240;-77
2020/12/28 11:16:08;;;;;;;7.53;6.07;;;;;;;4.01;61.78;92098.06;5066097;28;20212;-75
2020/12/28 11:18:34;;;;;;;9.87;6.30;;;;;;;3.77;62.58;92090.44;5065960;28;20192;-74
2020/12/28 11:21:01;;;;;;;7.97;6.37;;;;;;;3.64;62.81;92121.19;5066637;28;20620;-75
2020/12/28 11:23:57;;;;;;;8.87;6.83;;;;;;;3.64;62.47;92118.63;5070588;28;20193;-77
2020/12/28 11:26:16;;;;;;;48.13;33.00;;;;;;;3.68;63.12;92086.66;5069414;28;20202;-75
2020/12/28 11:28:42;;;;;;;26.80;18.60;;;;;;;3.70;63.64;92109.34;5069387;28;20251;-75
2020/12/28 11:31:07;;;;;;;10.47;7.30;;;;;;;3.58;63.51;92128.91;5069575;28;20192;-75
2020/12/28 11:33:33;;;;;;;7.50;6.60;;;;;;;3.59;63.55;92099.94;5070163;28;20692;-76
2020/12/28 11:35:59;;;;;;;11.80;7.03;;;;;;;3.56;65.74;92073.19;5069294;28;21770;-74
2020/12/28 11:38:25;;;;;;;9.10;6.87;;;;;;;3.56;65.07;92072.41;5069595;28;20193;-75
2020/12/28 11:40:52;;;;;;;11.97;6.83;;;;;;;3.51;64.87;92095.16;5068707;28;20787;-75